Panagiotis Mandalos

Chief Scout - PAOK
4 Dec 2028
Monday
Process

Personality

Adaptability (12) Ambition (14) Controversy (12) Loyalty (5) Pressure (8) Professionalism (4) Sportsmanship (3) Temperament (19)

Profile

Coaching Style Democratic
License National B
Determination 6
Man Management 10
Motivating 10
Discipline 6
Job Satisfaction
100%
Fatigue
0%
Role Chief Scout
Wage 62.6K p/w
Contract 14.03.2030

Performance

Behaviour Good
Training Effectiveness
36%
Player Development
60%
Injury Prevention
40%
Tactical Implementation
30%

Recent Events

Attended a recruitment meeting now
Recommended a transfer target now
Recommended a transfer target now
Recommended a transfer target now
Assessed a player now
Assessed a player now
Assessed a player now
Assessed a player now

Currently Monitoring

424
Player Club Status Ability Confidence Watched Last Observed Latest Vote
Chris Rigg West Ham United Active 144 / 148 40% 2 03.12.2028 -
Jake Richards Barrow AFC Active 123 / 112 40% 3 03.12.2028 -
Fletcher Boyd Accrington Stanley Active 118 / 123 40% 2 03.12.2028 -
Lisandro Piñero Banfield Active 118 / 114 40% 9 02.12.2028 -
Vakhtang Salia Shonan Bellmare Active 99 / 121 40% 2 02.12.2028 -
Trey Nyoni Rotherham United Active 145 / 158 40% 13 01.12.2028 -
Luis Otávio Orlando City Active 125 / 128 40% 6 01.12.2028 -
Harrison Armstrong Ipswich Town Active 133 / 142 40% 3 01.12.2028 -
Babis Kostoulas Oxford United Active 144 / 164 40% 8 01.12.2028 -
Sean Steur Rotherham United Active 133 / 138 40% 3 01.12.2028 -
Igor Tyjon Barrow AFC Active 126 / 120 40% 1 01.12.2028 -
Christ Wawa Gefle Active 99 / 116 40% 3 30.11.2028 -
Álvaro Montoro Botafogo Active 135 / 123 40% 6 30.11.2028 -
Harry Gray Harrogate Town Active 129 / 139 40% 6 30.11.2028 -
Lionel Jara Central Córdoba SdE Active 106 / 112 40% 4 28.11.2028 -
Valentino Huertas Morón Active 106 / 105 40% 3 28.11.2028 -
André Miranda Porto Active 119 / 139 40% 2 28.11.2028 -
Joel Ezra Enyimba Active 108 / 117 40% 4 27.11.2028 -
Luca Williams-Barnett Walsall Active 134 / 149 40% 2 27.11.2028 -
Franco Mastantuono Córdoba Active 152 / 153 40% 1 27.11.2028 -
Gustavo Lozano Metropolitanos Active 102 / 121 40% 2 25.11.2028 -
Lucca São Paulo Active 114 / 113 40% 5 23.11.2028 -
Luka Andrade Montevideo City Torque Active 114 / 111 40% 8 23.11.2028 -
Ezra Mayers West Ham United Active 132 / 147 40% 3 22.11.2028 -
Celías Ingenthron Platense Active 127 / 139 40% 10 22.11.2028 -
Rio Ngumoha Plymouth Argyle Active 145 / 148 40% 2 22.11.2028 -
Salvador Blopá Wolverhampton Active 123 / 134 40% 1 22.11.2028 -
Daniel Banjaqui Benfica Active 122 / 140 40% 9 20.11.2028 -
Matías Arias Vélez Active 109 / 115 40% 3 19.11.2028 -
Ayyoub Bouaddi Stoke City Active 159 / 164 40% 3 19.11.2028 -
Lucas Jetten MC Alger Active 131 / 121 40% 1 19.11.2028 -
Matías Vilalta Giana Erminio Active 103 / 124 40% 1 17.11.2028 -
Patricio Flores Defensa y Justicia Active 94 / 101 40% 1 17.11.2028 -
Jack Porter Port Vale Active 117 / 115 40% 1 17.11.2028 -
Mateo Lizondo Colón Active 89 / 117 40% 3 15.11.2028 -
Santiago Segovia Rosario Central Active 107 / 131 40% 3 14.11.2028 -
Sebastian Olderheim Stromsgodset Active 109 / 106 40% 2 14.11.2028 -
Peyton Miller New England Revolution Active 104 / 103 40% 2 13.11.2028 -
Diego León Rotherham United Active 118 / 141 40% 2 13.11.2028 -
Ryan Kavuma-McQueen Accrington Stanley Active 127 / 117 40% 1 13.11.2028 -
Ryan McAidoo Oldham Athletic Active 137 / 148 40% 1 13.11.2028 -
Giovanni Leoni Lincoln City Active 142 / 145 40% 1 13.11.2028 -
Snyder Brunell Seattle Sounders Active 97 / 86 40% 1 13.11.2028 -
Julian Hall Real Salt Lake Active 108 / 118 40% 2 10.11.2028 -
Buba Sangaré Elche Active 131 / 146 40% 3 09.11.2028 -
Amin Nabizada Exeter City Active 114 / 125 40% 1 09.11.2028 -
Jorge Salinas Racing Santander Active 130 / 139 40% 7 08.11.2028 -
Jake Evans Crewe Alexandra Active 123 / 122 40% 2 08.11.2028 -
Adrian Lahdo Empoli Active 136 / 150 40% 1 08.11.2028 -
Isaque Obolon Active 134 / 134 40% 2 07.11.2028 -
Christos Mouzakitis Hull City Active 136 / 147 40% 7 06.11.2028 -
Aarón Ochoa Málaga Active 121 / 114 40% 1 05.11.2028 -
Mikey Moore Stockport County Active 138 / 146 40% 2 04.11.2028 -
Sebastian Rodriguez Houston Dynamo Active 128 / 126 40% 3 02.11.2028 -
Sayfiddin Sodikov Andijon Active 86 / 90 40% 3 02.11.2028 -
Shea Lacey Crystal Palace Active 143 / 154 40% 1 02.11.2028 -
Daniel Johan Skaarud Sandefjord Active 106 / 121 40% 1 01.11.2028 -
Tyler Silsby Salford City Active 105 / 115 40% 1 30.10.2028 -
Kevin Filling AIK Active 113 / 114 40% 1 29.10.2028 -
Ibrahim Fullah Charlton Athletic Active 125 / 125 40% 1 28.10.2028 -
Martín Jiménez Iquique Active 109 / 116 40% 4 26.10.2028 -
Emiliano Zambrano Cortulua Active 105 / 90 40% 1 25.10.2028 -
Markus Wæhler Lillestrom Active 108 / 107 40% 1 25.10.2028 -
Ahmed Saeed Djurgarden Active 100 / 101 40% 1 24.10.2028 -
Nadir Sánchez Central Córdoba SdE Active 105 / 116 40% 3 21.10.2028 -
Mateus Mané Burnley Active 154 / 160 40% 3 20.10.2028 -
Oumar Camara Vitoria Guimaraes Active 127 / 133 40% 1 20.10.2028 -
Lennart Karl TSG Hoffenheim Active 150 / 147 40% 1 17.10.2028 -
Fabricio Chacón Central Córdoba SdE Active 95 / 117 40% 1 14.10.2028 -
Gabriel Mec Feirense Active 126 / 148 40% 1 13.10.2028 -
Tyson Pearce St. Louis CITY SC Active 93 / 92 40% 1 12.10.2028 -
Bernardo Lima Porto Active 119 / 142 40% 3 10.10.2028 -
Santiago Espíndola River Plate Active 111 / 135 40% 1 10.10.2028 -
Noah Markmann Esbjerg Active 124 / 133 40% 1 10.10.2028 -
Ben Broggio Mansfield Town Active 111 / 137 40% 1 10.10.2028 -
Alan Torterolo Defensor Sporting Active 94 / 101 40% 1 10.10.2028 -
Harald Woxen Sarpsborg 08 Active 104 / 108 40% 1 08.10.2028 -
Tyler Fletcher Rotherham United Active 115 / 118 40% 5 06.10.2028 -
Tahiel Peralta Racing Club Active 112 / 127 40% 2 06.10.2028 -
Ibrahim Mbaye Queens Park Rangers Active 137 / 143 40% 2 05.10.2028 -
Ethan Nwaneri Arsenal Active 150 / 166 40% 1 05.10.2028 -
Honest Ahanor Atalanta Active 139 / 159 40% 12 04.10.2028 -
Gideon Manaseh Ikorodu City Active 86 / 82 40% 3 04.10.2028 -
Lautaro Dufur Juventud Active 95 / 105 40% 1 04.10.2028 -
Romelle Donovan Brentford Active 139 / 144 40% 3 02.10.2028 -
Leonel Flores Boca Juniors Active 98 / 106 40% 1 02.10.2028 -
Ahmed Khaled Paralimni Active 106 / 125 40% 1 01.10.2028 -
Alex Verón Vélez Active 118 / 109 40% 3 29.09.2028 -
Ryunosuke Sato Eibar Active 130 / 131 40% 1 24.09.2028 -
Leandro Olima Atlético Tucumán Active 97 / 111 40% 1 24.09.2028 -
Mamoutou Berthé US Bougouba Active 119 / 101 40% 2 22.09.2028 -
Pablo Lago Juventud Active 113 / 115 40% 3 21.09.2028 -
Rudi Vikström FF Jaro Active 96 / 90 40% 1 20.09.2028 -
Matías Cantero All Boys Active 104 / 96 40% 1 10.09.2028 -
Jano Aguiar Colón Active 98 / 87 40% 1 09.09.2028 -
Roberto Medina La Equidad Active 86 / 87 40% 1 07.09.2028 -
Owen Asemota Aston Villa Active 100 / 105 40% 1 06.09.2028 -
Anastasios Pisiias Kawasaki Frontale Active 98 / 114 40% 1 06.09.2028 -
Yury Oyarzo Racing Active 101 / 91 40% 1 05.09.2028 -
Lucas Herrington Hull City Active 105 / 107 40% 1 05.09.2028 -
Felipe Pujol Vélez Active 104 / 107 40% 1 05.09.2028 -
Diego Cheuquepal Racing Active 110 / 96 40% 2 29.08.2028 -
Kamaldeen Atiemo Wa All Stars Active 107 / 128 40% 1 29.08.2028 -
Harry Amass Manchester United Active 143 / 143 40% 1 29.08.2028 -
Facundo Balatti Penarol Active 96 / 123 40% 3 24.08.2028 -
Landon Emenalo Chelsea Active 122 / 136 40% 1 16.08.2028 -
Julián Chicco Asteras Report Ready 131 / 122 72% 1 07.08.2028 -
Mauro Carrizo Atlético Tucumán Active 113 / 127 40% 1 07.08.2028 -
Mats Egbring Heerenveen Active 104 / 132 40% 1 31.07.2028 -
Máximo Munarriz San Telmo Active 101 / 93 40% 2 29.07.2028 -
Matías Pandiella Konyaspor Active 99 / 117 40% 1 29.07.2028 -
Tobías Ramírez River Plate Active 133 / 126 40% 3 20.07.2028 -
Jan Bürger Northampton Town Active 118 / 137 40% 1 18.07.2028 -
Miguel Figueiredo Benfica Active 126 / 130 40% 1 17.07.2028 -
Noa Mikić Imotski Active 113 / 131 40% 1 11.07.2028 -
Cheveyo Tsawa Club Brugge Active 122 / 149 40% 2 10.07.2028 -
Francisco Meixedo Feirense Active 120 / 108 40% 1 04.07.2028 -
Marios Vichos Levadiakos Active 125 / 138 72% 1 26.06.2028 Approve
João Simões Sporting CP Active 138 / 129 40% 1 19.06.2028 -
Josh Keeley Luton Town Active 136 / 139 40% 1 14.06.2028 -
Filippo Manfrin Arzignano Active 111 / 123 40% 1 14.06.2028 -
Valerio Boffelli Cavese Active 117 / 110 40% 1 14.06.2028 -
Pape Diong Westerlo Active 122 / 142 40% 7 07.06.2028 -
Yvann Maçon AEL Larisa Active 134 / 118 72% 1 07.06.2028 Approve
Hamza Mendyl Volos NPS Lost 120 / 113 72% 1 03.06.2028 -
Cesare Galeotti Trapani Lost 121 / 127 40% 1 03.06.2028 -
Leo Román Deportivo La Coruña Active 148 / 168 40% 1 03.06.2028 -
Filip Marschall Stevenage Active 124 / 128 40% 1 03.06.2028 -
Lucas Høgsberg RC Strasbourg Active 147 / 134 40% 5 02.06.2028 -
Lamine Bèye Portimonense Active 107 / 117 40% 2 02.06.2028 -
Alejandro Iturbe Elche Active 141 / 154 40% 1 01.06.2028 -
Jordan Amissah Burton Albion Lost 121 / 117 40% 1 01.06.2028 -
Radek Vítek Middlesbrough Active 143 / 161 40% 1 01.06.2028 -
Sebastiano Esposito Cagliari Active 151 / 142 40% 1 31.05.2028 -
Jamie Donley West Bromwich Albion Active 128 / 115 40% 1 31.05.2028 -
Andrija Bulatović Chamois Niortais Active 125 / 120 40% 5 29.05.2028 -
Kwesi Sorotu Badori Berekum Chelsea Active 106 / 113 40% 2 29.05.2028 -
Jorthy Mokio ADO Den Haag Active 130 / 124 40% 6 28.05.2028 -
Noahkai Banks FC Augsburg Active 146 / 130 40% 1 27.05.2028 -
Ayden Heaven Portsmouth Active 138 / 146 40% 8 26.05.2028 -
Andrea Cogoni Cosenza Active 105 / 103 40% 3 26.05.2028 -
Denys Smetana Rukh Active 93 / 116 40% 1 24.05.2028 -
Josh Nichols Oldham Athletic Active 119 / 127 40% 7 21.05.2028 -
Kelian Le Pironnec Mirandés Active 90 / 95 40% 1 21.05.2028 -
Bence Szakos Aris Active 85 / 88 40% 8 20.05.2028 -
Musa Danjuma Umraniyespor Active 86 / 86 40% 4 20.05.2028 -
Kiani Inge Groningen Active 117 / 114 40% 2 19.05.2028 -
Federico Matarán Giana Erminio Active 103 / 99 40% 3 18.05.2028 -
Thijs Kraaijeveld USM Alger Active 128 / 116 40% 2 18.05.2028 -
Amine Boukamir Charleroi Active 99 / 107 40% 2 18.05.2028 -
Sebastián Arancibia Antofagasta Active 111 / 107 40% 1 14.05.2028 -
Riquelme Thompson-Jones Accrington Stanley Active 104 / 130 40% 6 11.05.2028 -
Andrey Ivlev Nizhniy Novgorod Active 119 / 124 40% 1 11.05.2028 -
Konta Ismaily Active 94 / 110 40% 3 07.05.2028 -
Tobiáš Pališčák Zlin Active 103 / 114 40% 6 06.05.2028 -
Olivier Leroux Mouscron Active 103 / 95 40% 2 05.05.2028 -
Mohammed El Âdfaoui Westerlo Active 113 / 118 40% 1 28.04.2028 -
Yoram Zague Paris Saint-Germain Active 133 / 146 40% 6 21.04.2028 -
Josh Acheampong Everton Active 143 / 153 40% 5 19.04.2028 -
Augusto Bando Ascoli Active 118 / 105 40% 1 10.04.2028 -
Amir Mohammad Razzaghinia Esteghlal Active 116 / 136 40% 1 01.04.2028 -
Matias Siltanen Malmo FF Active 124 / 128 40% 3 31.03.2028 -
Olivier Mambwa Young Boys Active 104 / 127 40% 2 29.03.2028 -
Izan Merino Málaga Active 127 / 119 40% 2 24.03.2028 -
Andrea Bertoncini Triestina Active 91 / 107 40% 1 19.03.2028 -
Charlie Gray Fleetwood Town Active 90 / 99 40% 2 07.02.2028 -
Felipe Faúndez O'Higgins Active 111 / 121 40% 5 07.02.2028 -
Matvey Bardachev Zenit Active 106 / 107 40% 1 31.01.2028 -
Manuel Mónaco Sarmiento Active 117 / 112 40% 5 25.01.2028 -
Gabriel Pec Cruzeiro Active 139 / 143 40% 6 25.01.2028 -
Talles Magno New York City Active 125 / 125 40% 9 24.01.2028 -
Ben Gannon Doak Charlton Athletic Active 150 / 163 40% 4 24.01.2028 -
Rodrigo Nestor Bahia Active 135 / 125 40% 1 24.01.2028 -
Emerson Batalla Atletico Bucaramanga Active 120 / 114 40% 10 18.01.2028 -
Lucas Assadi AIK Active 134 / 141 40% 8 18.01.2028 -
Bénie Traoré New York City Active 133 / 115 40% 5 17.01.2028 -
Liel Abada Inter Miami CF Active 134 / 149 40% 5 17.01.2028 -
Victor Lind Hammarby Active 135 / 132 40% 3 17.01.2028 -
Benjamín Rollheiser Santos Active 136 / 129 40% 1 11.01.2028 -
Alex Luna Instituto Active 140 / 136 40% 7 09.01.2028 -
Geny Sporting CP Active 151 / 144 40% 1 09.01.2028 -
Victor Hernandez Santa Fe Active 119 / 139 40% 7 06.01.2028 -
Samuel Velásquez Atletico Nacional Active 126 / 125 40% 7 06.01.2028 -
Eric Ramires Bragantino Active 141 / 147 40% 3 06.01.2028 -
Sayfallah Ltaief O'Higgins Active 117 / 106 40% 9 05.01.2028 -
Pedro de la Vega Columbus Crew Active 133 / 138 40% 8 05.01.2028 -
Quinn Sullivan Philadelphia Union Active 120 / 138 40% 4 03.01.2028 -
Caleb Yirenkyi Coventry City Active 150 / 136 40% 3 03.01.2028 -
Santiago Montiel Independiente Active 137 / 143 40% 6 03.01.2028 -
Telasco Segovia Inter Miami CF Active 145 / 143 40% 6 01.01.2028 -
Antonio Galeano Remo Stars Active 137 / 112 40% 8 01.01.2028 -
Bitello Universidad de Chile Active 135 / 135 68% 1 01.01.2028 Approve
Christian Kouamé Atlético Mineiro Active 126 / 120 40% 2 31.12.2027 -
Henry Mosquera Bragantino Active 128 / 119 40% 2 31.12.2027 -
Marino Hinestroza Bahia Active 124 / 146 40% 4 29.12.2027 -
David Da Costa Portland Timbers Active 141 / 135 40% 4 23.12.2027 -
Caio Vidal Deportivo Pereira Active 125 / 139 40% 6 23.12.2027 -
Antony Portland Timbers Active 145 / 128 40% 7 22.12.2027 -
Franco Zapiola Platense Active 123 / 137 40% 1 22.12.2027 -
Esquerdinha Notts County Active 123 / 121 40% 1 21.12.2027 -
Camilo Martinez Cortulua Active 137 / 141 40% 7 18.12.2027 -
Andrés Gómez Vasco da Gama Active 148 / 142 40% 3 17.12.2027 -
Alexis Cuello San Lorenzo Active 124 / 110 40% 1 17.12.2027 -
Luca Langoni Columbus Crew Active 132 / 125 40% 5 16.12.2027 -
Colin Guske Orlando City Active 85 / 105 40% 3 14.12.2027 -
Nicolas Sport Recife Active 109 / 93 40% 2 12.12.2027 -
Ignacio Aliseda Cerro Porteno Active 120 / 130 40% 3 10.12.2027 -
Santiago Rodríguez Columbus Crew Active 125 / 115 40% 4 08.12.2027 -
Edvard Pettersen Sandefjord Active 111 / 112 40% 3 30.11.2027 -
Erick Pulga Bahia Active 126 / 132 40% 2 30.11.2027 -
Maurício Palmeiras Active 135 / 117 40% 1 28.11.2027 -
Jon Esenga IF Elfsborg Active 97 / 112 40% 1 24.11.2027 -
Hugo Rojas Instituto Active 95 / 116 40% 1 22.11.2027 -
Aarón Molinas Defensa y Justicia Active 131 / 111 40% 2 18.11.2027 -
Bruno Leyes Godoy Cruz Active 122 / 133 40% 2 17.11.2027 -
Juan Bisanz Huracán Active 132 / 120 40% 5 16.11.2027 -
Daniel Barrea Godoy Cruz Active 113 / 121 40% 5 15.11.2027 -
Oscar Steinke Brånby Hammarby Active 100 / 100 40% 3 10.11.2027 -
Diego Luna Real Salt Lake Active 135 / 146 40% 6 08.11.2027 -
Azizbek To'lqinbekov Bunyodkor Active 109 / 89 40% 1 08.11.2027 -
Kevin Zenón Boca Juniors Active 129 / 135 40% 3 07.11.2027 -
Johan Martínez Deportivo Cali Active 116 / 120 40% 3 02.11.2027 -
Noel Sernelius IFK Norrkoping Active 101 / 103 40% 1 30.10.2027 -
Alejandro Piedrahita Deportivo Pereira Active 131 / 138 40% 2 28.10.2027 -
Nahuel Leivas Montevideo City Torque Active 113 / 116 40% 2 26.10.2027 -
Malick Yalcouyé Brighton Active 133 / 121 40% 1 26.10.2027 -
Mohamed Moussa Koïta Mathare United Active 100 / 82 40% 2 16.10.2027 -
Björn Hedlöf Helsingborg Active 98 / 96 40% 1 16.10.2027 -
Vince Osuji Stabaek Active 102 / 119 40% 1 08.10.2027 -
Olaniyi Saheed Kwara United Active 90 / 87 40% 1 08.10.2027 -
Kein Sato FC Tokyo Active 133 / 124 40% 1 24.09.2027 -
Gadiel Paoli River Plate Active 93 / 110 40% 3 23.09.2027 -
Santiago Toloza O'Higgins Active 120 / 112 40% 1 23.09.2027 -
Jonny Shore New York City Active 101 / 114 40% 1 21.09.2027 -
Gabriel Pirani San Diego Football Club Active 134 / 140 40% 3 19.09.2027 -
Alexander Aravena Portland Timbers Active 134 / 145 40% 2 18.09.2027 -
Paxten Aaronson Colorado Rapids Active 143 / 123 40% 3 18.09.2027 -
Sebastián Navarro Atletico Nacional Active 113 / 127 40% 1 12.09.2027 -
Agustín Medina Lanús Active 122 / 145 40% 2 11.09.2027 -
Adrian Skogmar Malmo FF Active 110 / 131 40% 1 11.09.2027 -
Yiandro Raap Ilves Active 97 / 98 40% 1 08.09.2027 -
Giorgi Kvernadze Frosinone Active 138 / 141 40% 3 17.08.2027 -
Edwin Mosquera Santa Fe Active 113 / 108 40% 1 15.08.2027 -
Jordan Zemura Udinese Active 130 / 138 40% 1 15.08.2027 -
Lewis Ferguson Bologna Active 153 / 160 40% 4 14.08.2027 -
Pedro Vian Seewald Dolomiti Bellunesi Active 91 / 100 40% 4 14.08.2027 -
Mbekezeli Mbokazi Chicago Fire Active 129 / 115 40% 1 14.08.2027 -
Ibrahim Bayesh Al Dhafra Active 125 / 112 40% 1 11.08.2027 -
Stiven Shpendi Empoli Active 131 / 120 40% 3 10.08.2027 -
Toby Collyer West Bromwich Albion Active 142 / 134 40% 5 09.08.2027 -
Tyrese Campbell Sheffield United Active 132 / 136 40% 4 09.08.2027 -
Rocco Vata Watford Active 116 / 140 40% 4 09.08.2027 -
Oliver Skipp Leicester City Active 135 / 130 40% 3 08.08.2027 -
Jack McGlynn Stoke City Active 143 / 151 40% 3 08.08.2027 -
Max Johnston Derby County Active 142 / 139 40% 11 06.08.2027 -
Othmane Maamma Watford Active 135 / 141 40% 2 06.08.2027 -
Ricardo Horta Braga Active 160 / 157 40% 3 06.08.2027 -
Zane Albarus Shrewsbury Town Active 101 / 117 40% 2 06.08.2027 -
Bertuğ Yıldırım Basaksehir Active 139 / 145 40% 1 06.08.2027 -
Alex Lowry Wycombe Wanderers Active 119 / 118 40% 3 04.08.2027 -
Ali Ahmed Norwich City Active 126 / 142 40% 2 04.08.2027 -
Tommaso Cecotti Carpi Active 92 / 89 40% 1 01.08.2027 -
Sascha Britschgi AC Milan Active 116 / 135 40% 3 31.07.2027 -
Yoane Wissa Newcastle United Active 155 / 145 40% 2 31.07.2027 -
Willem Geubbels Lecce Active 139 / 118 40% 1 29.07.2027 -
Rafael Navarro Famalicao Active 141 / 143 40% 1 29.07.2027 -
Amin Sarr Hellas Verona Active 125 / 127 40% 1 28.07.2027 -
Sam Greenwood Bristol City Active 133 / 137 40% 4 26.07.2027 -
Million Manhoef Stoke City Active 138 / 136 40% 1 26.07.2027 -
Jackson Muleka Konyaspor Active 129 / 140 40% 1 26.07.2027 -
Nicolas Madsen Queens Park Rangers Active 125 / 138 40% 2 23.07.2027 -
Jack Rudoni Coventry City Active 137 / 153 40% 1 23.07.2027 -
Max Bird Birmingham Active 128 / 144 40% 7 22.07.2027 -
Malik Mothersille Stockport County Active 110 / 115 40% 2 22.07.2027 -
Tomáš Rigo Stoke City Active 132 / 124 40% 3 20.07.2027 -
Aidan Morris Middlesbrough Active 141 / 147 40% 7 17.07.2027 -
Jenson Jones Walsall Active 92 / 103 40% 3 16.07.2027 -
Richard Koné Queens Park Rangers Active 123 / 119 40% 1 16.07.2027 -
Gonçalo Oliveira Benfica Active 114 / 126 40% 1 16.07.2027 -
Welington Southampton Active 129 / 145 40% 12 13.07.2027 -
Eliás Montiel Borussia Dortmund Active 141 / 155 40% 3 13.07.2027 -
Patson Daka Leicester City Active 121 / 145 40% 2 12.07.2027 -
Keinan Davis Udinese Active 144 / 138 40% 1 07.07.2027 -
Aune Heggebø West Bromwich Albion Active 129 / 115 40% 3 06.07.2027 -
Sonny Carey Charlton Athletic Active 116 / 136 40% 1 06.07.2027 -
Alexandre Brito Leiria Active 96 / 116 40% 1 01.07.2027 -
Elia Caprile Cagliari Active 154 / 135 40% 1 28.06.2027 -
Nathan Bishop AFC Wimbledon Active 113 / 113 40% 1 28.06.2027 -
Simón Pinto Huachipato Active 108 / 96 40% 2 25.06.2027 -
Esteban de Lima Tacuarembo Active 90 / 77 40% 1 25.06.2027 -
Daniel Vernattus Metalist Active 97 / 97 40% 1 24.06.2027 -
Tiago Freitas Benfica Active 114 / 116 40% 1 24.06.2027 -
Lukas Nmecha Leeds United Active 130 / 124 40% 1 14.06.2027 -
Juan Bezerra Zamalek Active 123 / 132 40% 3 07.06.2027 -
Bongani Zungu Ajax Cape Town Active 130 / 110 40% 3 05.06.2027 -
Shea Charles Southampton Active 143 / 141 40% 7 05.06.2027 -
Jacques Ekomié Wrexham Active 121 / 139 40% 6 04.06.2027 -
Alfie Devine Preston Active 125 / 129 40% 1 02.06.2027 -
Azor Matusiwa Ipswich Town Active 128 / 144 40% 8 30.05.2027 -
Tariq Lamptey Queens Park Rangers Active 136 / 147 40% 3 29.05.2027 -
Jordan Beyer Burnley Active 143 / 138 40% 2 28.05.2027 -
Alfie Gilchrist West Bromwich Albion Active 127 / 124 40% 1 27.05.2027 -
Rodrigo Muniz Fulham Active 130 / 152 40% 1 25.05.2027 -
Tyrese Shade Burton Albion Active 108 / 100 40% 1 25.05.2027 -
Luke McNally Bristol City Active 139 / 120 40% 7 23.05.2027 -
Ronnie Edwards Queens Park Rangers Active 122 / 116 40% 4 23.05.2027 -
Fábio Tavares Burton Albion Active 101 / 114 40% 3 23.05.2027 -
Mees Rijks Bristol Rovers Active 117 / 122 40% 1 23.05.2027 -
Brooke Norton-Cuffy Hull City Active 146 / 153 40% 3 21.05.2027 -
André-Franck Zambo Anguissa Napoli Active 158 / 143 40% 3 21.05.2027 -
Harrison Burrows Sheffield United Active 121 / 113 40% 2 21.05.2027 -
Jacob Greaves Ipswich Town Active 148 / 136 40% 7 20.05.2027 -
Dale Taylor Blackpool Active 106 / 105 40% 1 18.05.2027 -
George Brown Sheffield Wednesday Active 103 / 110 40% 1 17.05.2027 -
Tomáš Souček West Ham United Active 131 / 129 40% 6 14.05.2027 -
Lorent Tolaj Plymouth Argyle Active 110 / 113 40% 2 14.05.2027 -
Stephen Amankona Aduana Stars Active 89 / 76 40% 1 14.05.2027 -
Ben Nelson Leicester City Active 135 / 116 40% 1 14.05.2027 -
Dara O'Shea Ipswich Town Active 135 / 143 40% 8 09.05.2027 -
Harry Clarke Preston Active 127 / 119 40% 3 07.05.2027 -
Adam Randell Bristol City Active 130 / 146 40% 4 07.05.2027 -
Toti Wolverhampton Active 129 / 131 40% 4 04.05.2027 -
Japhet Tanganga Sheffield United Active 137 / 130 40% 2 03.05.2027 -
Michael Baidoo Plymouth Argyle Active 132 / 134 40% 1 03.05.2027 -
Elmin Rastoder Panathinaikos Active 123 / 136 40% 2 01.05.2027 -
Hidemasa Morita Hull City Active 138 / 151 40% 10 29.04.2027 -
Bosun Lawal Stoke City Active 118 / 125 40% 5 29.04.2027 -
Andre Brooks Sheffield United Active 127 / 132 40% 1 27.04.2027 -
Mitchel Bakker Modena Active 136 / 112 40% 1 27.04.2027 -
Kyle Walker-Peters West Ham United Active 142 / 127 40% 2 26.04.2027 -
Kristoffer Lund Birmingham Active 120 / 110 40% 1 24.04.2027 -
Enrico Delprato Parma Active 134 / 123 40% 3 23.04.2027 -
Derry Murkin Derby County Active 119 / 118 40% 3 22.04.2027 -
Lewis O'Brien Wrexham Active 127 / 136 40% 1 21.04.2027 -
Dennis Cirkin Queens Park Rangers Active 119 / 128 40% 6 20.04.2027 -
Alessio Romagnoli Lazio Active 138 / 153 40% 1 20.04.2027 -
Kenny Tete Fulham Active 150 / 146 40% 9 19.04.2027 -
Florentino Luís Ipswich Town Active 140 / 150 40% 8 17.04.2027 -
Habib Diarra Sunderland Active 146 / 156 40% 4 17.04.2027 -
Lucas Da Cunha Como Active 144 / 136 40% 2 14.04.2027 -
Rody Junior Effaghe Aris Active 108 / 123 40% 2 07.04.2027 -
Matt Clarke Derby County Active 119 / 124 40% 3 07.04.2027 -
Majid Moharrami Rah Ahan Active 103 / 125 40% 1 07.04.2027 -
Joe Gelhardt Hull City Active 131 / 121 40% 2 05.04.2027 -
Jonathan Varane Queens Park Rangers Active 128 / 121 40% 1 04.04.2027 -
Sam Bell Bristol City Active 130 / 128 40% 1 03.04.2027 -
Mohamed-Ali Cho Hull City Active 127 / 138 40% 2 30.03.2027 -
Mohammad Hosseini Malavan Active 126 / 111 40% 1 30.03.2027 -
Alfie Doughty Millwall Active 119 / 114 40% 5 25.03.2027 -
Aidomo Emakhu Oxford United Active 113 / 122 40% 1 19.03.2027 -
Giorgos Kyriakopoulos Panathinaikos Active 135 / 122 40% 3 16.03.2027 -
Callum Brittain Middlesbrough Active 133 / 128 40% 1 13.03.2027 -
Álex Centelles Levski Active 134 / 124 40% 1 03.03.2027 -
Davide Calabria Panathinaikos Active 148 / 146 40% 4 27.02.2027 -
Gustavo Mantuan Zenit Active 132 / 141 40% 3 26.02.2027 -
Etiosa Ighodaro Kaizer Chiefs Active 108 / 128 40% 2 26.02.2027 -
Álvaro Medrán Al-Ettifaq Active 119 / 122 40% 1 26.02.2027 -
Azzedine Ounahi Panathinaikos Active 143 / 140 40% 7 24.02.2027 -
Lloyd Jones Charlton Athletic Active 118 / 143 40% 2 23.02.2027 -
Marezi Portsmouth Active 131 / 108 40% 1 20.02.2027 -
Christian Nørgaard Everton Active 138 / 158 40% 2 19.02.2027 -
Will Hughes Bloemfontein Celtic Active 127 / 115 40% 7 14.02.2027 -
Kings Kangwa Panathinaikos Active 138 / 139 40% 5 10.02.2027 -
Nicolás Andereggen Ethnikos Achnas Active 105 / 117 40% 1 10.02.2027 -
Tyreece Campbell Charlton Athletic Active 121 / 107 40% 1 07.02.2027 -
Brayan Gil Baltika Active 123 / 123 40% 1 05.02.2027 -
Milan van Ewijk Coventry City Active 123 / 119 40% 2 25.01.2027 -
Christos Giousis Nea Salamis Active 110 / 121 40% 1 18.01.2027 -
Enzo Cabrera AE Kition Active 120 / 98 40% 1 04.01.2027 -
Luiz Henrique AS Roma Active 142 / 143 68% 1 01.01.2027 Approve
Stanislav Agkatsev Brentford Active 132 / 133 66% 1 01.01.2027 Approve
Edu Expósito Espanyol Active 150 / 145 40% 12 30.12.2026 -
Anel Ahmedhodžić Burnley Active 145 / 123 40% 1 28.12.2026 -
Wendel Zenit Active 137 / 150 40% 5 25.12.2026 -
Matthew Targett Hull City Active 121 / 137 40% 1 24.12.2026 -
Alex Robertson Cardiff City Active 127 / 107 40% 1 21.12.2026 -
Joachim Andersen Fulham Active 141 / 145 40% 2 15.12.2026 -
Evander Wolverhampton Active 139 / 153 40% 1 12.12.2026 -
Mamadou Sangaré Brentford Active 148 / 132 40% 1 09.12.2026 -
Ben Sheaf Wrexham Active 122 / 126 40% 1 09.12.2026 -
Facundo Pellistri Panathinaikos Active 132 / 125 40% 1 05.12.2026 -
Alexandr Chernikov Krasnodar Active 133 / 124 40% 3 01.12.2026 -
Luis Chávez Dinamo Moscow Active 131 / 124 40% 3 29.11.2026 -
Tobias Gulliksen Rapid Wien Active 125 / 142 40% 1 29.11.2026 -
Dion Lopy Al-Ittihad Active 133 / 130 40% 1 27.11.2026 -
Armstrong Oko-Flex Levski Active 117 / 125 40% 1 27.11.2026 -
Lukáš Červ Viktoria Plzen Active 137 / 128 40% 3 26.11.2026 -
Tormena Krasnodar Active 134 / 130 40% 3 24.11.2026 -
Odin Bjørtuft Bodo/Glimt Active 130 / 124 40% 5 23.11.2026 -
Otávio Spartak Moscow Active 142 / 147 40% 2 22.11.2026 -
Mohamed Camara Maccabi Tel Aviv Active 135 / 140 40% 2 21.11.2026 -
Peter Federico Gornik Zabrze Active 130 / 121 40% 1 19.11.2026 -
Diego Gómez Brighton Active 152 / 137 40% 3 16.11.2026 -
Gedson Fernandes Spartak Moscow Active 131 / 131 40% 4 14.11.2026 -
Yacine Adli Al-Shabab Active 146 / 139 40% 3 13.11.2026 -
Sergey Pinyaev Lokomotiv Moscow Active 133 / 119 40% 1 13.11.2026 -
Denis Vavro Viktoria Plzen Active 132 / 127 40% 2 11.11.2026 -
Sota Kitano Red Bull Salzburg Active 126 / 108 40% 2 09.11.2026 -
Mohau Nkota Al-Ettifaq Active 120 / 143 40% 1 09.11.2026 -
Ferland Mendy Real Madrid Active 146 / 131 40% 5 06.11.2026 -
Michal Sadílek Slavia Prague Active 124 / 142 40% 2 05.11.2026 -
Moisés CSKA Moscow Active 125 / 126 40% 4 19.10.2026 -
Eduard Löwen San Jose Earthquakes Active 126 / 125 40% 3 17.10.2026 -
Agustín Anello Philadelphia Union Active 131 / 124 40% 5 13.10.2026 -
Pedro Henrique Shakhtar Active 129 / 124 40% 2 13.10.2026 -
Daniel Karlsbakk Sarpsborg 08 Active 122 / 129 40% 1 10.10.2026 -
Dominik Marczuk Real Salt Lake Active 117 / 112 40% 1 10.10.2026 -
Kenji Cabrera Vancouver Whitecaps Active 116 / 103 40% 1 10.10.2026 -
Yves Bissouma Tottenham Active 145 / 141 40% 1 07.10.2026 -
Teboho Mokoena Mamelodi Sundowns Active 122 / 128 40% 3 02.10.2026 -
Miles Robinson FC Cincinnati Active 139 / 123 40% 2 29.09.2026 -
Amin Boudri Los Angeles Football Club Active 120 / 110 40% 1 29.09.2026 -
Douglas Augusto Krasnodar Active 124 / 138 40% 2 25.09.2026 -
Jaime Seoane Al-Faisaly Active 142 / 153 40% 1 25.09.2026 -
Jimer Fory Portland Timbers Active 113 / 133 40% 1 25.09.2026 -
Theo Corbeanu Toronto FC Active 118 / 118 40% 2 22.09.2026 -
Jon Gorenc Stankovič Sturm Graz Active 129 / 147 40% 1 19.09.2026 -
Juan David Cabal Juventus Active 144 / 124 40% 1 15.09.2026 -
Owen Beck Liverpool Active 128 / 118 40% 2 10.09.2026 -
Nico Elvedi Leeds United Active 125 / 135 40% 1 03.09.2026 -
Manu Morlanes Mallorca Active 125 / 140 40% 1 02.09.2026 -
Crysencio Summerville Al-Hilal Active 146 / 152 40% 1 29.08.2026 -
Griffin Yow New England Revolution Active 111 / 108 40% 1 26.08.2026 -
Oleksandr Zubkov AEK Active 133 / 121 40% 1 17.08.2026 Needs More Info